Flight Track Log - Related Links

Times and Time Zones

All times are in EDT time to prevent confusion due to time zone crossing. See the N762NC flight status page for this flight to view local times or setup timezone preferences in your user account.

Time Position Orientation Groundspeed Altitude Reporting Facility
EDT Latitude Longitude Course Direction KTS MPH feet Rate Location/Type
Thu 07:56:01 AM 41.9167 -87.9333 168° South 171 197 2,700  Level Chicago TRACON
Thu 07:56:58 AM 41.8664 -87.9253 173° South 225 259 4,200 1,765 Climbing Chicago Center
Thu 07:58:00 AM 41.5529 -87.7059 170° South  Level Estimated
Thu 07:58:00 AM 41.7981 -87.8994 164° South 247 284 6,200  Level Chicago Center
Thu 07:59:00 AM 41.4393 -87.7080 181° South  Level FlightAware Approximate
Thu 07:59:02 AM 41.7258 -87.8639 160° South 270 311 8,500  Level Chicago Center
Thu 08:00:00 AM 41.3258 -87.7101 181° South  Level FlightAware Approximate
Thu 08:00:03 AM 41.6494 -87.8383 166° South 281 323 10,400  Level Chicago Center
Thu 08:01:00 AM 41.2217 -87.6605 168° South  Level Estimated
Thu 08:01:05 AM 41.5706 -87.8283 175° South 284 327 12,300  Level Chicago Center
Thu 08:02:07 AM 41.4850 -87.8289 180° South 302 348 13,500 1,113 Climbing Chicago Center
Thu 08:03:09 AM 41.3886 -87.8133 173° South 341 392 14,600 1,306 Climbing Chicago Center
Thu 08:04:11 AM 41.2858 -87.7922 171° South 366 421 16,200 1,561 Climbing Chicago Center
Thu 08:05:12 AM 41.1811 -87.7606 167° South 381 438 17,800 1,561 Climbing Chicago Center
Thu 08:06:14 AM 41.0514 -87.7192 166° South 398 458 19,400 1,500 Climbing Chicago Center
Thu 08:07:16 AM 40.9428 -87.6725 162° South 407 468 20,900 1,452 Climbing Chicago Center
Thu 08:08:18 AM 40.8328 -87.6258 162° South 414 476 22,400 1,210 Climbing Chicago Center
Thu 08:09:20 AM 40.7214 -87.5789 162° South 421 484 23,400 927 Climbing Chicago Center
Thu 08:10:21 AM 40.6061 -87.5292 162° South 432 497 24,300 878 Climbing Chicago Center
Thu 08:11:23 AM 40.4861 -87.4783 162° South 451 519 25,200 968 Climbing Chicago Center
Thu 08:12:25 AM 40.3544 -87.4231 162° South 463 533 26,300 968 Climbing Chicago Center
Thu 08:13:27 AM 40.2311 -87.3750 163° South 465 535 27,200 991 Climbing Chicago Center
Thu 08:14:20 AM 40.1022 -87.3319 166° South 471 542 28,200 887 Climbing Indianapolis Center
Thu 08:15:22 AM 39.9731 -87.2994 169° South 474 545 28,900 387 Climbing Indianapolis Center
Thu 08:16:24 AM 39.8397 -87.2828 175° South 483 556 29,000 49 Climbing Indianapolis Center
Thu 08:17:25 AM 39.7056 -87.2878 182° South 485 558 29,000  Level Indianapolis Center
Thu 08:18:27 AM 39.5717 -87.2808 178° South 487 560 29,000  Level Indianapolis Center
Thu 08:19:29 AM 39.4131 -87.2458 170° South 485 558 29,000 484 Level Indianapolis Center
Thu 08:20:31 AM 39.2831 -87.2150 170° South 481 554 30,000 1,024 Climbing Indianapolis Center
Thu 08:21:32 AM 39.1536 -87.1833 169° South 478 550 31,100 1,122 Climbing Indianapolis Center
Thu 08:22:34 AM 39.0181 -87.1494 169° South 471 542 32,300 1,016 Climbing Indianapolis Center
Thu 08:23:36 AM 38.8906 -87.1169 169° South 467 537 33,200 677 Climbing Indianapolis Center
Thu 08:24:38 AM 38.7642 -87.0828 168° South 462 532 33,700 484 Climbing Indianapolis Center
Thu 08:25:40 AM 38.6375 -87.0483 168° South 462 532 34,200 484 Climbing Indianapolis Center
Thu 08:26:42 AM 38.5100 -87.0147 168° South 464 534 34,700 390 Climbing Indianapolis Center
Thu 08:27:43 AM 38.3728 -86.9783 168° South 464 534 35,000 146 Climbing Indianapolis Center
Thu 08:28:45 AM 38.2442 -86.9469 169° South 468 539 35,000  Level Indianapolis Center
Thu 08:29:47 AM 38.1125 -86.9114 168° South 476 548 35,000  Level Indianapolis Center
Thu 08:30:49 AM 37.9817 -86.8769 168° South 476 548 35,000  Level Indianapolis Center
Thu 08:31:51 AM 37.8233 -86.8364 169° South 480 552 35,000  Level Indianapolis Center
Thu 08:32:52 AM 37.6903 -86.8064 170° South 482 555 35,000  Level Indianapolis Center
Thu 08:33:54 AM 37.5564 -86.7836 172° South 483 556 35,000  Level Indianapolis Center
Thu 08:34:56 AM 37.4183 -86.7650 174° South 480 552 35,000  Level Indianapolis Center
Thu 08:35:58 AM 37.2822 -86.7450 173° South 485 558 35,000  Level Indianapolis Center
Thu 08:37:00 AM 37.1475 -86.7389 178° South 480 552 35,000  Level Indianapolis Center
Thu 08:38:02 AM 37.0219 -86.7844 196° South 466 536 35,000  Level Indianapolis Center
Thu 08:39:03 AM 36.9022 -86.8425 201° Southwest 459 528 35,000  Level Indianapolis Center
Thu 08:40:29 AM 36.7289 -86.9553 208° Southwest 460 529 35,000 -123 Level Memphis Center
Thu 08:41:29 AM 36.6358 -87.0625 223° Southwest 454 522 34,700 -600 Descending Memphis Center
Thu 08:42:29 AM 36.5469 -87.1669 223° Southwest 448 516 33,800 -900 Descending Memphis Center
Thu 08:43:29 AM 36.4272 -87.2156 198° South 442 509 32,900 -350 Descending Memphis Center
Thu 08:44:29 AM 36.3067 -87.1508 157° South 425 489 33,100 50 Climbing Memphis Center
Thu 08:45:29 AM 36.2322 -87.0094 123° Southeast 416 479 33,000 -50 Descending Memphis Center
Thu 08:46:29 AM 36.1675 -86.8581 118° Southeast 461 531 33,000  Level Memphis Center
Thu 08:47:29 AM 36.1336 -86.6925 104° East 466 536 33,000  Level Memphis Center
Thu 08:48:29 AM 36.0706 -86.5411 117° Southeast 483 556 33,000  Level Memphis Center
Thu 08:50:17 AM 35.8522 -86.3958 152° Southeast 488 562 33,000  Level Atlanta Center
Thu 08:51:17 AM 35.7261 -86.3281 156° South 493 567 33,000  Level Atlanta Center
Thu 08:52:17 AM 35.6106 -86.2661 156° South 498 573 33,000  Level Atlanta Center
Thu 08:53:17 AM 35.4867 -86.1939 155° Southeast 498 573 33,000  Level Atlanta Center
Thu 08:54:17 AM 35.3714 -86.1017 147° Southeast 489 563 33,000 -100 Level Atlanta Center
Thu 08:55:17 AM 35.2581 -86.0100 147° Southeast 499 574 32,800 -650 Descending Atlanta Center
Thu 08:56:17 AM 35.1303 -85.9078 147° Southeast 494 568 31,700 -1,050 Descending Atlanta Center
Thu 08:57:17 AM 35.0147 -85.8164 147° Southeast 494 568 30,700 -1,150 Descending Atlanta Center
Thu 08:58:17 AM 34.8972 -85.7253 148° Southeast 500 575 29,400 -1,450 Descending Atlanta Center
Thu 08:59:17 AM 34.7753 -85.6294 147° Southeast 506 582 27,800 -2,300 Descending Atlanta Center
Thu 09:00:17 AM 34.6617 -85.5389 147° Southeast 501 577 24,800 -9,400 Descending Atlanta Center
Thu 09:01:17 AM 34.5522 -85.4461 145° Southeast 491 565 9,000 -3,150 Descending Atlanta Center
Thu 09:02:17 AM 34.4489 -85.3639 147° Southeast 476 548 18,500 3,650 Climbing Atlanta Center
Thu 09:03:17 AM 34.3450 -85.3094 157° South 424 488 16,300 -2,150 Descending Atlanta Center
Thu 09:04:17 AM 34.2558 -85.2375 146° Southeast 390 449 14,200 -1,700 Descending Atlanta Center
Thu 09:05:17 AM 34.1881 -85.1386 130° Southeast 378 435 12,900 -600 Descending Atlanta Center
Thu 09:06:17 AM 34.1136 -85.0550 137° Southeast 378 435 13,000 -100 Climbing Atlanta Center
Thu 09:07:17 AM 34.0558 -84.9614 127° Southeast 352 405 12,700 -700 Descending Atlanta Center
Thu 09:08:17 AM 33.9939 -84.8731 130° Southeast 352 405 11,600 -1,050 Descending Atlanta Center
Thu 09:09:17 AM 33.9108 -84.8197 152° Southeast 341 392 10,600 -881 Descending Atlanta Center
Thu 09:10:06 AM 33.8333 -84.8000 168° South 304 350 10,000 -1,156 Descending Atlanta TRACON
Thu 09:11:06 AM 33.7667 -84.7833 168° South 283 326 8,500 -1,684 Descending Atlanta TRACON
Thu 09:12:00 AM 33.7000 -84.7667 168° South 291 335 6,800 -1,500 Descending Atlanta TRACON
Thu 09:13:06 AM 33.6500 -84.7000 132° Southeast 276 318 5,500 -1,050 Descending Atlanta TRACON
Thu 09:14:00 AM 33.6500 -84.6333 90° East 218 251 4,700 -1,105 Descending Atlanta TRACON
Thu 09:15:00 AM 33.6500 -84.5667 90° East 170 196 3,400 -1,200 Descending Atlanta TRACON
Thu 09:16:00 AM 33.6500 -84.5167 90° East 160 184 2,300 -950 Descending Atlanta TRACON
Thu 09:17:00 AM 33.6500 -84.4667 90° East 154 177 1,500 -800 Descending Atlanta TRACON

Login

Don't have an account? Register now (free) for customized features, flight alerts, and more!